Time;durP1;ratioP1;P1;durP2;ratioP2;P2;SDS_P1;SDS_P2;PMS_P1;PMS_P2;Temp;Humidity;BMP_temperature;BMP_pressure;BME280_temperature;BME280_humidity;BME280_pressure;Samples;Min_cycle;Max_cycle;Signal;HPM_P1;HPM_P2
2023/08/15 00:01:23;;;;;;;9.70;7.77;;;17.80;99.90;;;;;;5021692;28;20251;-84
2023/08/15 00:03:50;;;;;;;11.60;6.80;;;17.60;99.90;;;;;;5021349;28;20662;-85
2023/08/15 00:06:17;;;;;;;9.20;7.07;;;17.70;99.90;;;;;;5021547;28;20324;-84
2023/08/15 00:08:42;;;;;;;10.33;7.13;;;17.60;99.90;;;;;;5020153;28;20722;-83
2023/08/15 00:11:08;;;;;;;9.20;6.67;;;17.70;99.90;;;;;;5003473;28;20218;-85
2023/08/15 00:13:34;;;;;;;9.40;7.77;;;17.80;99.90;;;;;;5020895;28;20244;-83
2023/08/15 00:16:00;;;;;;;9.30;6.67;;;17.90;99.90;;;;;;5020988;28;20301;-85
2023/08/15 00:18:26;;;;;;;18.47;7.20;;;18.00;99.90;;;;;;5021435;28;20628;-84
2023/08/15 00:20:51;;;;;;;12.03;7.97;;;18.00;99.90;;;;;;5021980;28;20226;-83
2023/08/15 00:23:17;;;;;;;8.83;6.97;;;18.00;99.90;;;;;;5021540;28;20261;-84
2023/08/15 00:25:43;;;;;;;9.30;6.60;;;18.00;99.90;;;;;;5021261;28;20251;-85
2023/08/15 00:28:09;;;;;;;11.53;6.57;;;18.10;99.90;;;;;;5021076;28;20195;-85
2023/08/15 00:30:34;;;;;;;10.40;7.07;;;18.10;99.90;;;;;;5021989;28;20198;-83
2023/08/15 00:33:01;;;;;;;12.87;7.70;;;18.20;99.90;;;;;;5020394;28;20242;-84
2023/08/15 00:35:27;;;;;;;9.43;6.10;;;18.20;99.90;;;;;;5021500;28;20264;-84
2023/08/15 00:37:52;;;;;;;8.73;6.83;;;18.20;99.90;;;;;;5020976;28;21365;-86
2023/08/15 00:40:18;;;;;;;9.43;7.23;;;18.20;99.90;;;;;;5019650;28;20591;-84
2023/08/15 00:42:44;;;;;;;8.80;6.23;;;18.20;99.90;;;;;;5022697;28;20310;-82
2023/08/15 00:45:10;;;;;;;9.00;6.83;;;18.20;99.90;;;;;;5021179;28;20218;-85
2023/08/15 00:47:37;;;;;;;7.67;6.07;;;18.20;99.90;;;;;;5003826;28;20237;-85
2023/08/15 00:50:07;;;;;;;14.60;7.43;;;18.20;99.90;;;;;;5009380;28;20214;-85
2023/08/15 00:52:33;;;;;;;7.43;6.23;;;18.10;99.90;;;;;;5021245;28;20233;-84
2023/08/15 00:54:59;;;;;;;8.03;5.80;;;18.00;99.90;;;;;;5020929;28;20194;-85
2023/08/15 00:57:25;;;;;;;8.30;6.40;;;17.90;99.90;;;;;;5041200;28;20214;-85
2023/08/15 00:59:51;;;;;;;9.60;6.63;;;17.80;99.90;;;;;;5040697;28;21113;-83
2023/08/15 01:02:17;;;;;;;8.43;6.60;;;17.80;99.90;;;;;;5040316;28;20269;-85
2023/08/15 01:04:43;;;;;;;14.00;7.23;;;17.80;99.90;;;;;;5040951;28;20261;-83
2023/08/15 01:07:10;;;;;;;9.50;6.57;;;17.80;99.90;;;;;;5041010;28;20233;-84
2023/08/15 01:09:38;;;;;;;9.70;6.37;;;17.90;99.90;;;;;;5040582;28;20605;-84
2023/08/15 01:12:31;;;;;;;9.00;6.90;;;18.00;99.90;;;;;;5022020;28;20214;-84
2023/08/15 01:15:29;;;;;;;8.77;6.80;;;18.10;99.90;;;;;;5020259;28;20217;-85
2023/08/15 01:18:15;;;;;;;7.97;6.23;;;18.10;99.90;;;;;;5018867;28;20237;-84
2023/08/15 01:20:41;;;;;;;8.60;6.53;;;18.10;99.90;;;;;;5018486;28;20230;-84
2023/08/15 01:23:11;;;;;;;11.63;7.67;;;18.20;99.90;;;;;;5020184;28;20223;-84
2023/08/15 01:25:41;;;;;;;12.50;6.93;;;18.30;99.90;;;;;;5020454;28;21065;-85
2023/08/15 01:28:12;;;;;;;7.30;6.37;;;18.50;99.90;;;;;;5018452;28;20213;-83
2023/08/15 01:30:46;;;;;;;11.30;6.03;;;18.50;99.90;;;;;;5052682;28;20663;-84
2023/08/15 01:33:24;;;;;;;14.77;5.87;;;18.60;99.90;;;;;;5020461;28;20214;-85
2023/08/15 01:36:00;;;;;;;9.20;6.97;;;18.70;99.90;;;;;;5020884;28;20702;-83
2023/08/15 01:38:54;;;;;;;8.00;6.67;;;18.80;99.90;;;;;;5020566;28;20221;-86
2023/08/15 01:41:23;;;;;;;7.30;5.43;;;18.80;99.90;;;;;;5020008;28;20226;-84
2023/08/15 01:43:50;;;;;;;12.50;6.33;;;18.80;99.90;;;;;;5020213;28;20261;-85
2023/08/15 01:46:16;;;;;;;9.77;6.03;;;18.90;99.90;;;;;;5019984;28;20187;-85
2023/08/15 01:48:42;;;;;;;15.13;7.73;;;18.80;99.90;;;;;;5020680;28;20227;-84
2023/08/15 01:51:08;;;;;;;8.00;7.00;;;18.80;99.90;;;;;;5018082;28;20560;-84
2023/08/15 01:53:36;;;;;;;8.80;7.43;;;18.80;99.90;;;;;;5020032;28;20225;-84
2023/08/15 01:56:02;;;;;;;8.47;6.60;;;18.80;99.90;;;;;;5019884;28;20227;-83
2023/08/15 01:58:28;;;;;;;12.03;7.10;;;18.80;99.90;;;;;;5017251;28;20221;-84
2023/08/15 02:00:53;;;;;;;9.47;7.40;;;18.90;99.90;;;;;;5019468;28;20213;-84
2023/08/15 02:03:19;;;;;;;13.47;7.83;;;18.90;99.90;;;;;;5002566;28;20230;-84
2023/08/15 02:05:45;;;;;;;12.13;6.30;;;18.90;99.90;;;;;;5019998;28;20747;-85
2023/08/15 02:08:11;;;;;;;13.03;6.10;;;18.80;99.90;;;;;;5019596;28;20246;-85
2023/08/15 02:10:36;;;;;;;8.50;6.77;;;18.80;99.90;;;;;;5020608;28;20233;-82
2023/08/15 02:13:02;;;;;;;16.80;6.93;;;18.80;99.90;;;;;;5019691;28;20821;-85
2023/08/15 02:15:28;;;;;;;9.77;7.67;;;18.80;99.90;;;;;;5019255;28;20182;-84
2023/08/15 02:17:54;;;;;;;9.77;6.63;;;18.80;99.90;;;;;;5019101;28;20727;-83
2023/08/15 02:20:19;;;;;;;8.47;7.10;;;18.80;99.90;;;;;;5001448;28;20223;-83
2023/08/15 02:22:45;;;;;;;10.97;6.50;;;18.80;99.90;;;;;;5018923;28;20566;-85
2023/08/15 02:25:11;;;;;;;9.33;7.63;;;18.80;99.90;;;;;;5035258;28;20186;-85
2023/08/15 02:27:36;;;;;;;17.77;7.70;;;18.80;99.90;;;;;;5019176;28;20390;-83
2023/08/15 02:30:04;;;;;;;10.93;7.53;;;18.80;99.90;;;;;;5018362;28;20214;-85
2023/08/15 02:32:30;;;;;;;9.53;6.37;;;18.90;99.90;;;;;;5015902;28;20284;-84
2023/08/15 02:34:56;;;;;;;11.57;7.47;;;18.90;99.90;;;;;;5018601;28;20329;-85
2023/08/15 02:37:22;;;;;;;13.87;8.80;;;18.90;99.90;;;;;;5018987;28;20228;-85
2023/08/15 02:39:47;;;;;;;13.30;7.57;;;18.90;99.90;;;;;;5018172;28;20190;-85
2023/08/15 02:42:13;;;;;;;12.00;7.83;;;18.90;99.90;;;;;;5017990;28;20222;-83
2023/08/15 02:44:39;;;;;;;10.63;7.13;;;18.80;99.90;;;;;;5018922;28;20218;-84
2023/08/15 02:47:05;;;;;;;9.87;7.53;;;18.80;99.90;;;;;;5017937;28;20218;-84
2023/08/15 02:49:31;;;;;;;8.53;7.27;;;18.80;99.90;;;;;;5019623;28;20226;-85
2023/08/15 02:51:56;;;;;;;8.87;6.97;;;18.80;99.90;;;;;;5018246;28;21072;-85
2023/08/15 02:54:22;;;;;;;13.73;7.70;;;18.70;99.90;;;;;;5018867;28;20219;-85
2023/08/15 02:56:48;;;;;;;10.30;7.33;;;18.80;99.90;;;;;;5002587;28;20210;-86
2023/08/15 02:59:13;;;;;;;13.80;7.63;;;18.70;99.90;;;;;;5020711;28;20271;-87
2023/08/15 03:01:39;;;;;;;13.13;7.97;;;18.70;99.90;;;;;;5021686;28;20264;-87
2023/08/15 03:04:08;;;;;;;11.17;7.33;;;18.80;99.90;;;;;;5024702;28;20186;-85
2023/08/15 03:06:35;;;;;;;9.87;6.03;;;18.80;99.90;;;;;;5022434;28;20186;-85
2023/08/15 03:09:00;;;;;;;8.60;6.03;;;18.80;99.90;;;;;;5024812;28;20211;-84
2023/08/15 03:11:29;;;;;;;9.70;6.13;;;18.80;99.90;;;;;;5024085;28;20956;-85
2023/08/15 03:13:54;;;;;;;8.87;6.33;;;18.90;99.90;;;;;;5019921;28;20214;-85
2023/08/15 03:16:21;;;;;;;10.33;6.10;;;18.90;99.90;;;;;;5023639;28;20285;-87
2023/08/15 03:18:47;;;;;;;6.57;4.83;;;19.00;99.90;;;;;;5020809;28;20632;-87
2023/08/15 03:21:13;;;;;;;10.27;6.03;;;19.00;99.90;;;;;;5022940;28;20280;-85
2023/08/15 03:23:38;;;;;;;13.90;6.13;;;19.00;99.90;;;;;;5024291;28;20236;-87
2023/08/15 03:26:05;;;;;;;9.10;5.90;;;19.00;99.90;;;;;;5037621;28;20476;-87
2023/08/15 03:28:32;;;;;;;8.83;6.50;;;19.00;99.90;;;;;;5020075;28;20254;-87
2023/08/15 03:31:06;;;;;;;8.10;5.33;;;19.10;99.90;;;;;;5023290;28;20256;-87
2023/08/15 03:33:32;;;;;;;9.67;5.53;;;19.10;99.90;;;;;;5023919;28;21138;-86
2023/08/15 03:35:58;;;;;;;10.13;6.03;;;19.00;99.90;;;;;;5006228;28;20222;-84
2023/08/15 03:38:24;;;;;;;9.30;5.93;;;19.00;99.90;;;;;;5034009;28;20210;-84
2023/08/15 03:41:02;;;;;;;6.17;4.57;;;19.00;99.90;;;;;;5042733;28;20321;-87
2023/08/15 03:43:28;;;;;;;9.13;5.37;;;19.00;99.90;;;;;;5053820;28;20703;-86
2023/08/15 03:45:54;;;;;;;7.07;5.10;;;19.00;99.90;;;;;;5023665;28;20656;-86
2023/08/15 03:48:19;;;;;;;7.87;4.83;;;19.00;99.90;;;;;;5023020;28;20250;-84
2023/08/15 03:50:45;;;;;;;8.23;6.00;;;18.90;99.90;;;;;;5022190;28;20225;-86
2023/08/15 03:53:11;;;;;;;6.60;4.73;;;18.90;99.90;;;;;;5022235;28;20334;-86
2023/08/15 03:55:37;;;;;;;8.87;5.13;;;18.90;99.90;;;;;;5022863;28;20305;-84
2023/08/15 03:58:02;;;;;;;8.43;5.47;;;18.90;99.90;;;;;;5022131;28;20187;-87
2023/08/15 04:00:28;;;;;;;7.63;4.83;;;18.80;99.90;;;;;;5006992;28;20198;-85
2023/08/15 04:02:54;;;;;;;6.43;4.47;;;18.80;99.90;;;;;;5022093;28;20223;-87
2023/08/15 04:05:20;;;;;;;5.97;4.33;;;18.70;99.90;;;;;;5022293;28;20225;-84
2023/08/15 04:07:47;;;;;;;6.53;4.20;;;18.70;99.90;;;;;;5022324;28;20226;-87
2023/08/15 04:10:13;;;;;;;6.30;3.23;;;18.60;99.90;;;;;;5022683;28;20667;-84
2023/08/15 04:12:40;;;;;;;6.63;3.80;;;18.60;99.90;;;;;;5022642;28;20199;-84
2023/08/15 04:15:06;;;;;;;6.23;3.13;;;18.50;99.90;;;;;;5020327;28;20226;-87
2023/08/15 04:17:32;;;;;;;3.63;3.03;;;18.40;99.90;;;;;;5005039;28;20214;-84
2023/08/15 04:19:57;;;;;;;9.73;2.63;;;18.40;99.90;;;;;;5022275;28;20296;-84
2023/08/15 04:22:23;;;;;;;4.60;2.80;;;18.40;99.90;;;;;;5004151;28;20317;-87
2023/08/15 04:24:49;;;;;;;5.37;2.63;;;18.30;99.90;;;;;;5023514;28;20194;-86
2023/08/15 04:27:15;;;;;;;4.83;2.10;;;18.30;99.90;;;;;;5021516;28;20813;-87
2023/08/15 04:29:40;;;;;;;8.00;2.20;;;18.30;99.90;;;;;;5021843;28;20272;-87
2023/08/15 04:32:06;;;;;;;5.77;3.47;;;18.30;99.90;;;;;;5021112;28;20320;-85
2023/08/15 04:34:32;;;;;;;5.37;2.13;;;18.30;99.90;;;;;;5021973;28;20233;-86
2023/08/15 04:36:57;;;;;;;5.40;2.20;;;18.30;99.90;;;;;;5005849;28;20202;-83
2023/08/15 04:39:24;;;;;;;6.30;2.87;;;18.30;99.90;;;;;;5021641;28;20210;-85
2023/08/15 04:41:50;;;;;;;2.80;2.13;;;18.30;99.90;;;;;;5003947;28;20227;-84
2023/08/15 04:44:16;;;;;;;3.17;2.20;;;18.30;99.90;;;;;;5021819;28;20226;-83
2023/08/15 04:46:41;;;;;;;6.00;2.37;;;18.30;99.90;;;;;;5021474;28;20241;-86
2023/08/15 04:49:07;;;;;;;4.23;2.57;;;18.20;99.90;;;;;;5021294;28;20237;-84
2023/08/15 04:51:33;;;;;;;9.23;1.83;;;18.30;99.90;;;;;;5022085;28;20195;-84
2023/08/15 04:53:59;;;;;;;3.50;1.97;;;18.20;99.90;;;;;;5020985;28;20219;-85
2023/08/15 04:56:24;;;;;;;4.83;1.70;;;18.30;99.90;;;;;;5022176;28;20218;-86
2023/08/15 04:58:50;;;;;;;4.73;2.10;;;18.20;99.90;;;;;;5018762;28;20791;-85
2023/08/15 05:01:16;;;;;;;5.30;2.10;;;18.20;99.90;;;;;;5003063;28;20272;-84
2023/08/15 05:03:42;;;;;;;1.20;1.10;;;18.30;99.90;;;;;;5021053;28;20194;-86
2023/08/15 05:06:08;;;;;;;4.80;1.77;;;18.30;99.90;;;;;;5020954;28;20211;-85
2023/08/15 05:08:33;;;;;;;2.77;1.77;;;18.30;99.90;;;;;;5020922;28;20225;-83
2023/08/15 05:11:00;;;;;;;4.53;1.60;;;18.30;99.90;;;;;;5003769;28;20214;-84
2023/08/15 05:13:26;;;;;;;2.13;1.53;;;18.30;99.90;;;;;;5020052;28;21020;-83
2023/08/15 05:15:52;;;;;;;4.43;2.40;;;18.40;99.90;;;;;;5020851;28;20544;-85
2023/08/15 05:18:19;;;;;;;2.33;1.67;;;18.50;99.90;;;;;;5020539;28;20215;-86
2023/08/15 05:20:48;;;;;;;5.03;1.93;;;18.60;99.90;;;;;;5021170;28;20241;-86
2023/08/15 05:23:14;;;;;;;4.80;1.50;;;18.70;99.90;;;;;;5021303;28;20264;-83
2023/08/15 05:25:43;;;;;;;5.97;2.17;;;18.70;99.90;;;;;;5019973;28;20252;-88
2023/08/15 05:28:10;;;;;;;6.33;1.90;;;18.80;99.90;;;;;;5019239;28;20536;-87
2023/08/15 05:30:36;;;;;;;3.13;1.33;;;18.80;99.90;;;;;;5021203;28;20217;-86
2023/08/15 05:33:02;;;;;;;10.57;2.80;;;18.80;99.90;;;;;;5020495;28;20246;-83
2023/08/15 05:35:28;;;;;;;7.80;1.93;;;18.80;99.90;;;;;;5020838;28;20264;-86
2023/08/15 05:37:54;;;;;;;3.27;1.40;;;18.80;99.90;;;;;;5019865;28;20232;-84
2023/08/15 05:40:21;;;;;;;3.50;1.73;;;18.80;99.90;;;;;;5019137;28;20663;-85
2023/08/15 05:42:47;;;;;;;4.27;2.00;;;19.00;99.90;;;;;;5053639;28;20210;-84
2023/08/15 05:45:14;;;;;;;5.50;3.13;;;19.10;99.90;;;;;;5020665;28;20234;-84
2023/08/15 05:47:40;;;;;;;3.50;2.53;;;19.20;99.90;;;;;;5020926;28;20230;-86
2023/08/15 05:50:07;;;;;;;5.00;2.00;;;20.20;99.90;;;;;;5018319;28;20233;-83
2023/08/15 05:52:33;;;;;;;5.17;3.03;;;22.00;99.90;;;;;;5020267;28;20253;-83
2023/08/15 05:54:59;;;;;;;5.53;2.93;;;23.30;99.90;;;;;;5020355;28;20187;-84
2023/08/15 05:57:25;;;;;;;3.90;1.90;;;23.30;99.90;;;;;;5020223;28;20190;-86
2023/08/15 05:59:51;;;;;;;5.07;2.20;;;22.80;99.90;;;;;;5019817;28;20337;-84
2023/08/15 06:02:17;;;;;;;3.70;2.00;;;22.00;99.90;;;;;;5018806;28;20692;-86
2023/08/15 06:04:43;;;;;;;4.40;1.97;;;21.20;99.90;;;;;;5018981;28;20256;-87
2023/08/15 06:07:09;;;;;;;7.40;2.27;;;20.80;99.90;;;;;;5020134;28;20198;-88
2023/08/15 06:09:35;;;;;;;4.43;2.07;;;20.80;99.90;;;;;;5020683;28;20775;-86
2023/08/15 06:12:01;;;;;;;5.60;2.00;;;21.00;99.90;;;;;;5019873;28;20233;-83
2023/08/15 06:14:26;;;;;;;4.43;1.87;;;23.10;99.90;;;;;;5019250;28;20215;-91
2023/08/15 06:16:52;;;;;;;5.22;1.80;;;25.70;99.90;;;;;;5003887;28;21054;-88
2023/08/15 06:19:18;;;;;;;9.75;2.10;;;28.00;99.90;;;;;;5019764;28;20195;-87
2023/08/15 06:21:44;;;;;;;6.28;2.40;;;28.20;99.90;;;;;;5021393;28;20202;-87
2023/08/15 06:24:13;;;;;;;4.00;2.00;;;29.80;99.90;;;;;;5019953;28;21043;-87
2023/08/15 06:26:39;;;;;;;4.38;1.60;;;31.80;99.90;;;;;;5020087;28;20302;-87
2023/08/15 06:29:06;;;;;;;4.05;1.50;;;32.90;99.90;;;;;;5019201;28;20237;-88
2023/08/15 06:31:32;;;;;;;7.05;2.40;;;34.10;99.90;;;;;;5019915;28;20264;-88
2023/08/15 06:33:58;;;;;;;2.38;1.52;;;34.60;99.90;;;;;;5021536;28;20202;-88
2023/08/15 06:36:24;;;;;;;3.75;1.50;;;33.80;99.90;;;;;;5003777;28;20227;-86
2023/08/15 06:38:50;;;;;;;1.08;1.02;;;34.60;99.90;;;;;;5021258;28;20219;-88
2023/08/15 06:41:16;;;;;;;2.00;1.50;;;34.60;99.90;;;;;;5019764;28;20226;-86
2023/08/15 06:43:43;;;;;;;4.18;1.85;;;35.80;99.90;;;;;;5003854;28;20671;-89
2023/08/15 06:46:09;;;;;;;3.15;2.10;;;35.60;99.90;;;;;;5019845;28;20293;-89
2023/08/15 06:48:34;;;;;;;1.65;1.38;;;33.80;99.90;;;;;;5020014;28;20275;-86
2023/08/15 06:51:00;;;;;;;5.07;1.42;;;31.90;99.90;;;;;;5020421;28;20309;-89
2023/08/15 06:53:26;;;;;;;2.08;1.27;;;29.80;99.90;;;;;;5020907;28;20218;-87
2023/08/15 06:55:52;;;;;;;4.45;1.30;;;29.20;99.90;;;;;;5002274;28;20222;-88
2023/08/15 06:58:20;;;;;;;2.90;1.35;;;30.30;99.90;;;;;;5019972;28;20225;-89
2023/08/15 07:00:46;;;;;;;3.75;1.25;;;31.90;99.90;;;;;;5019778;28;20191;-85
2023/08/15 07:03:15;;;;;;;5.75;1.52;;;30.20;99.90;;;;;;5008088;28;20713;-88
2023/08/15 07:05:41;;;;;;;2.95;1.92;;;30.50;99.90;;;;;;5020893;28;20218;-88
2023/08/15 07:08:07;;;;;;;4.40;1.52;;;32.10;99.90;;;;;;5019058;28;20247;-87
2023/08/15 07:10:34;;;;;;;3.45;1.48;;;30.20;99.90;;;;;;5018331;28;20223;-88
2023/08/15 07:13:00;;;;;;;3.75;1.52;;;29.20;99.90;;;;;;5018070;28;20632;-87
2023/08/15 07:15:26;;;;;;;0.82;0.82;;;28.50;99.90;;;;;;5019590;28;20191;-86
2023/08/15 07:17:52;;;;;;;2.67;1.05;;;27.80;99.90;;;;;;5018992;28;20225;-87
2023/08/15 07:20:18;;;;;;;5.25;1.85;;;28.40;99.90;;;;;;5017142;28;20214;-85
2023/08/15 07:22:43;;;;;;;6.53;1.10;;;30.20;99.90;;;;;;5017357;28;20372;-88
2023/08/15 07:25:10;;;;;;;5.55;1.50;;;30.80;99.90;;;;;;5017688;28;20721;-85
2023/08/15 07:27:36;;;;;;;1.70;1.17;;;29.50;99.90;;;;;;5018000;28;20193;-87
2023/08/15 07:30:03;;;;;;;1.60;0.98;;;29.40;99.90;;;;;;5018420;28;20723;-87
2023/08/15 07:32:28;;;;;;;2.90;1.33;;;29.70;99.90;;;;;;4991929;28;20344;-88
2023/08/15 07:34:55;;;;;;;1.65;1.42;;;30.20;99.90;;;;;;5019162;28;20210;-84
2023/08/15 07:37:21;;;;;;;2.63;1.08;;;30.10;99.90;;;;;;5019891;28;20684;-88
2023/08/15 07:39:59;;;;;;;4.43;1.60;;;29.50;99.90;;;;;;5019768;28;20191;-89
2023/08/15 07:42:26;;;;;;;1.65;1.38;;;27.80;99.90;;;;;;5019143;28;20778;-88
2023/08/15 07:44:52;;;;;;;6.25;1.80;;;26.70;99.90;;;;;;5018538;28;20314;-87
2023/08/15 07:47:19;;;;;;;4.00;1.80;;;27.60;99.90;;;;;;5033304;28;20280;-85
2023/08/15 07:49:44;;;;;;;3.83;1.30;;;29.00;99.90;;;;;;5020890;28;20811;-86
2023/08/15 07:52:10;;;;;;;3.28;1.20;;;29.30;99.90;;;;;;5005744;28;20205;-88
2023/08/15 07:54:36;;;;;;;3.25;1.23;;;30.20;99.90;;;;;;5022051;28;20191;-85
2023/08/15 07:57:02;;;;;;;3.55;1.23;;;31.60;99.90;;;;;;5022369;28;20246;-87
2023/08/15 07:59:27;;;;;;;2.50;1.27;;;32.40;99.90;;;;;;5020319;28;20288;-85
2023/08/15 08:01:53;;;;;;;1.45;0.90;;;33.30;99.90;;;;;;5020692;28;20234;-87
2023/08/15 08:04:19;;;;;;;2.33;1.20;;;32.00;99.90;;;;;;5022244;28;20222;-85
2023/08/15 08:06:45;;;;;;;4.45;1.27;;;30.20;99.90;;;;;;5023113;28;20292;-88
2023/08/15 08:09:11;;;;;;;3.72;1.38;;;30.10;99.90;;;;;;5004283;28;20633;-86
2023/08/15 08:11:37;;;;;;;1.17;0.70;;;29.30;99.90;;;;;;5032112;28;20372;-86
2023/08/15 08:14:03;;;;;;;3.70;1.30;;;29.20;99.90;;;;;;5005109;28;20221;-86
2023/08/15 08:16:29;;;;;;;4.28;1.50;;;28.70;99.90;;;;;;5056832;28;20264;-87
2023/08/15 08:18:55;;;;;;;3.13;1.10;;;28.60;99.90;;;;;;5045755;28;20182;-85
2023/08/15 08:21:21;;;;;;;1.23;0.80;;;29.10;99.90;;;;;;5040308;28;20268;-86
2023/08/15 08:23:46;;;;;;;1.63;1.15;;;30.40;99.90;;;;;;5041466;28;20226;-85
2023/08/15 08:26:12;;;;;;;1.38;0.90;;;29.80;99.90;;;;;;5024025;28;20209;-85
2023/08/15 08:28:38;;;;;;;1.92;1.15;;;28.30;99.90;;;;;;5055026;28;20236;-84
2023/08/15 08:31:04;;;;;;;1.73;1.50;;;27.70;99.90;;;;;;5041760;28;20276;-84
2023/08/15 08:33:30;;;;;;;2.15;1.40;;;27.30;99.90;;;;;;5041805;28;20220;-87
2023/08/15 08:35:56;;;;;;;1.85;1.27;;;27.10;99.90;;;;;;5041067;28;20214;-87
2023/08/15 08:38:22;;;;;;;4.82;2.00;;;27.40;99.90;;;;;;5041558;28;20301;-86
2023/08/15 08:40:47;;;;;;;3.42;1.60;;;28.40;99.90;;;;;;5042124;28;20220;-86
2023/08/15 08:43:18;;;;;;;1.08;0.98;;;30.00;99.90;;;;;;5040412;28;20194;-87
2023/08/15 08:45:51;;;;;;;3.42;1.00;;;29.90;99.90;;;;;;5041271;28;20576;-86
2023/08/15 08:48:18;;;;;;;3.85;0.98;;;29.60;99.90;;;;;;5040078;28;20234;-85
2023/08/15 08:50:44;;;;;;;2.22;1.10;;;27.80;99.90;;;;;;5040582;28;20425;-85
2023/08/15 08:53:10;;;;;;;2.45;1.08;;;26.10;99.90;;;;;;5040881;28;20217;-85
2023/08/15 08:55:38;;;;;;;3.50;1.40;;;27.00;99.90;;;;;;5039654;28;20214;-86
2023/08/15 08:58:05;;;;;;;1.35;1.00;;;27.40;99.90;;;;;;5039934;28;20223;-84
2023/08/15 09:00:32;;;;;;;3.15;1.00;;;28.50;99.90;;;;;;5040071;28;20205;-85
2023/08/15 09:02:58;;;;;;;2.83;1.73;;;29.50;99.90;;;;;;5040460;28;20288;-85
2023/08/15 09:05:26;;;;;;;5.53;1.45;;;29.60;99.90;;;;;;5039935;28;20769;-84
2023/08/15 09:07:52;;;;;;;1.40;0.95;;;29.90;99.90;;;;;;5039565;28;20254;-85
2023/08/15 09:10:20;;;;;;;1.40;0.88;;;30.20;99.90;;;;;;5039421;28;20284;-85
2023/08/15 09:12:47;;;;;;;4.43;1.38;;;29.90;99.90;;;;;;5040567;28;20218;-85
2023/08/15 09:15:13;;;;;;;4.18;1.20;;;30.50;99.90;;;;;;5038391;28;20218;-84
2023/08/15 09:17:40;;;;;;;1.13;0.68;;;31.30;99.90;;;;;;5039054;28;20214;-85
2023/08/15 09:20:16;;;;;;;1.05;0.95;;;29.30;99.90;;;;;;5039155;28;20271;-84
2023/08/15 09:22:45;;;;;;;0.85;0.85;;;28.40;99.90;;;;;;5039274;28;20225;-85
2023/08/15 09:25:14;;;;;;;3.10;1.00;;;28.90;99.90;;;;;;5040122;28;20198;-85
2023/08/15 09:27:41;;;;;;;1.35;1.02;;;29.20;99.90;;;;;;5040739;28;20194;-85
2023/08/15 09:30:12;;;;;;;2.35;1.10;;;28.80;99.90;;;;;;5039405;28;20245;-85
2023/08/15 09:32:40;;;;;;;2.58;1.13;;;29.90;99.90;;;;;;5038525;28;20225;-84
2023/08/15 09:35:08;;;;;;;4.03;1.30;;;31.10;99.90;;;;;;5038880;28;20241;-85
2023/08/15 09:37:33;;;;;;;2.05;1.13;;;30.10;99.90;;;;;;5039320;28;20213;-84
2023/08/15 09:40:00;;;;;;;1.92;1.23;;;29.80;99.90;;;;;;5040205;28;20350;-83
2023/08/15 09:42:28;;;;;;;3.13;1.20;;;29.90;99.90;;;;;;5010099;28;20214;-83
2023/08/15 09:44:55;;;;;;;2.75;1.15;;;30.30;99.90;;;;;;5038569;28;20245;-83
2023/08/15 09:47:21;;;;;;;2.65;0.88;;;30.00;99.90;;;;;;5039109;28;20679;-85
2023/08/15 09:49:52;;;;;;;1.50;1.05;;;29.60;99.90;;;;;;5038297;28;20252;-85
2023/08/15 09:52:19;;;;;;;0.88;0.85;;;29.30;99.90;;;;;;5039569;28;20318;-83
2023/08/15 09:54:45;;;;;;;1.38;1.10;;;29.90;99.90;;;;;;5039058;28;20174;-86
2023/08/15 09:57:11;;;;;;;3.90;1.10;;;30.00;99.90;;;;;;5038211;28;20221;-86
2023/08/15 09:59:37;;;;;;;2.97;1.35;;;30.30;99.90;;;;;;5038971;28;20233;-85
2023/08/15 10:02:05;;;;;;;1.60;0.82;;;30.60;99.90;;;;;;5037661;28;20222;-85
2023/08/15 10:04:33;;;;;;;1.02;0.98;;;30.70;99.90;;;;;;5039139;28;21182;-87
2023/08/15 10:07:00;;;;;;;2.72;1.10;;;31.30;99.90;;;;;;5072142;28;21201;-84
2023/08/15 10:09:29;;;;;;;3.00;1.30;;;31.70;99.90;;;;;;5039476;28;20224;-86
2023/08/15 10:11:57;;;;;;;1.30;1.00;;;30.90;99.90;;;;;;5070613;28;20214;-86
2023/08/15 10:14:24;;;;;;;2.08;1.25;;;30.20;99.90;;;;;;5038979;28;20214;-86
2023/08/15 10:16:50;;;;;;;1.55;0.90;;;29.70;99.90;;;;;;5039424;28;20281;-86
2023/08/15 10:19:19;;;;;;;1.67;1.15;;;31.10;99.90;;;;;;5038581;28;20197;-85
2023/08/15 10:21:50;;;;;;;1.00;0.80;;;31.10;99.90;;;;;;5040515;28;20209;-85
2023/08/15 10:24:16;;;;;;;2.40;1.10;;;29.90;99.90;;;;;;5039268;28;20230;-84
2023/08/15 10:26:43;;;;;;;1.70;0.77;;;30.00;99.90;;;;;;5039459;28;20241;-86
2023/08/15 10:29:09;;;;;;;5.28;0.80;;;30.00;99.90;;;;;;5038892;28;20214;-87
2023/08/15 10:31:36;;;;;;;2.47;0.95;;;29.40;99.90;;;;;;5039813;28;20582;-86
2023/08/15 10:34:10;;;;;;;2.15;1.10;;;29.90;99.90;;;;;;5038746;28;20221;-86
2023/08/15 10:36:39;;;;;;;1.15;0.93;;;29.40;99.90;;;;;;5039999;28;20182;-85
2023/08/15 10:39:06;;;;;;;1.10;0.70;;;28.60;99.90;;;;;;5038842;28;20222;-85
2023/08/15 10:41:36;;;;;;;2.00;0.93;;;28.00;99.90;;;;;;5024460;28;20272;-85
2023/08/15 10:44:07;;;;;;;1.27;1.00;;;28.50;99.90;;;;;;5005751;28;20233;-85
2023/08/15 10:46:34;;;;;;;1.45;1.08;;;29.80;99.90;;;;;;5018527;28;21076;-85
2023/08/15 10:49:17;;;;;;;1.77;1.17;;;29.40;99.90;;;;;;5000994;28;20296;-85
2023/08/15 10:51:43;;;;;;;3.75;0.95;;;28.60;99.90;;;;;;5015888;28;20202;-86
2023/08/15 10:54:14;;;;;;;8.85;1.65;;;29.00;99.90;;;;;;5001423;28;20329;-85
2023/08/15 10:56:41;;;;;;;1.17;0.90;;;29.40;99.90;;;;;;5018824;28;20373;-86
2023/08/15 10:59:12;;;;;;;2.70;1.10;;;29.60;99.90;;;;;;5019128;28;20712;-85
2023/08/15 11:01:41;;;;;;;1.65;0.95;;;30.00;99.90;;;;;;5001706;28;20272;-85
2023/08/15 11:04:08;;;;;;;1.38;1.15;;;28.60;99.90;;;;;;5018857;28;20178;-85
2023/08/15 11:06:41;;;;;;;5.97;1.15;;;28.90;99.90;;;;;;5020147;28;20225;-85
2023/08/15 11:09:09;;;;;;;2.00;1.10;;;28.50;99.90;;;;;;5019467;28;20329;-85
2023/08/15 11:11:34;;;;;;;1.48;1.10;;;27.00;99.90;;;;;;5016961;28;20222;-83
2023/08/15 11:14:00;;;;;;;1.52;1.20;;;27.30;99.90;;;;;;5018863;28;20272;-85
2023/08/15 11:16:26;;;;;;;1.40;0.90;;;27.50;99.90;;;;;;5018955;28;20214;-84
2023/08/15 11:18:55;;;;;;;2.15;1.13;;;27.40;99.90;;;;;;5019197;28;20200;-86
2023/08/15 11:21:20;;;;;;;3.60;1.00;;;27.40;99.90;;;;;;5018011;28;20218;-85
2023/08/15 11:23:46;;;;;;;1.75;1.15;;;27.80;99.90;;;;;;5018108;28;20276;-84
2023/08/15 11:26:14;;;;;;;2.83;1.10;;;27.70;99.90;;;;;;5019470;28;20607;-85
2023/08/15 11:28:40;;;;;;;0.70;0.70;;;27.00;99.90;;;;;;5005388;28;20219;-84
2023/08/15 11:31:14;;;;;;;2.35;1.00;;;26.50;99.90;;;;;;5021999;28;20190;-85
2023/08/15 11:33:40;;;;;;;1.58;0.82;;;26.80;99.90;;;;;;5022897;28;20573;-85
2023/08/15 11:36:07;;;;;;;2.92;1.10;;;26.30;99.90;;;;;;5021426;28;20225;-84
2023/08/15 11:38:34;;;;;;;0.90;0.80;;;26.60;99.90;;;;;;5022300;28;20234;-84
2023/08/15 11:41:02;;;;;;;1.67;1.30;;;26.60;99.90;;;;;;5018824;28;20222;-87
2023/08/15 11:43:32;;;;;;;1.00;0.88;;;26.70;99.90;;;;;;5022884;28;20257;-84
2023/08/15 11:46:03;;;;;;;1.92;1.30;;;27.00;99.90;;;;;;5023427;28;20240;-85
2023/08/15 11:48:32;;;;;;;2.75;1.25;;;27.20;99.90;;;;;;5021814;28;20241;-85
2023/08/15 11:50:59;;;;;;;1.50;1.40;;;27.30;99.90;;;;;;5023321;28;20568;-85
2023/08/15 11:53:25;;;;;;;1.27;0.95;;;27.80;99.90;;;;;;5005619;28;20214;-85
2023/08/15 11:55:51;;;;;;;2.45;1.25;;;27.00;99.90;;;;;;5022317;28;20306;-85
2023/08/15 11:58:31;;;;;;;2.08;1.10;;;26.70;99.90;;;;;;5005306;28;20191;-85
2023/08/15 12:01:05;;;;;;;1.45;1.35;;;26.00;99.90;;;;;;5023149;28;20197;-87
2023/08/15 12:03:31;;;;;;;4.93;1.40;;;25.90;99.90;;;;;;5021301;28;20297;-85
2023/08/15 12:06:04;;;;;;;1.27;1.17;;;26.10;99.90;;;;;;5022931;28;20263;-85
2023/08/15 12:08:30;;;;;;;1.08;1.02;;;26.40;99.90;;;;;;5021856;28;20309;-87
2023/08/15 12:11:08;;;;;;;1.13;0.90;;;26.60;99.90;;;;;;5023355;28;20294;-88
2023/08/15 12:13:41;;;;;;;1.65;1.27;;;27.00;99.90;;;;;;5023226;28;20221;-87
2023/08/15 12:16:08;;;;;;;0.82;0.73;;;27.10;99.90;;;;;;5022056;28;20187;-85
2023/08/15 12:18:34;;;;;;;4.68;1.25;;;26.80;99.90;;;;;;5006843;28;20191;-90
2023/08/15 12:21:01;;;;;;;2.40;1.13;;;26.00;99.90;;;;;;5022302;28;20431;-84
2023/08/15 12:23:28;;;;;;;0.77;0.77;;;25.80;99.90;;;;;;5023192;28;20207;-87
2023/08/15 12:25:54;;;;;;;1.00;0.98;;;25.70;99.90;;;;;;5023060;28;20302;-89
2023/08/15 12:28:20;;;;;;;2.28;1.00;;;25.50;99.90;;;;;;5021549;28;20321;-83
2023/08/15 12:30:46;;;;;;;1.10;1.00;;;25.40;99.90;;;;;;5006814;28;20179;-85
2023/08/15 12:33:12;;;;;;;1.20;0.90;;;25.60;99.90;;;;;;5020862;28;20245;-88
2023/08/15 12:35:38;;;;;;;5.25;1.10;;;25.30;99.90;;;;;;5020769;28;20206;-87
2023/08/15 12:38:04;;;;;;;1.55;0.90;;;25.00;99.90;;;;;;5023033;28;20226;-88
2023/08/15 12:40:31;;;;;;;1.52;0.70;;;25.00;99.90;;;;;;5023031;28;20226;-89
2023/08/15 12:42:57;;;;;;;0.82;0.73;;;24.40;99.90;;;;;;5023256;28;20213;-87
2023/08/15 12:45:23;;;;;;;1.75;1.05;;;24.30;99.90;;;;;;5023859;28;20210;-88